Flipper 5 — J5ME9 — position and weather

sailwx.info

Track history (hours):
 
Tides and Currents Weather Stations Pressure Air Temp Water Temp Dewpoint Dewpoint Depression Visibility Wind Speed Wind Dir Waves Ship Positions

Flipper 5

Last reported at 2018-Feb-06 04:50 UTC. Time now 2018-Feb-21 19:29 UTC.
Position N 10°51' W 016°38'.
Warning: this ship's position is 15 days out of date.

Length 62 m; draft 6.5 m.

Type: Fishing. MMSI: 630123005.

Date/timePositionNaut miles runAvg speedWind from/ knotsBaromVisibWave heightAir tempDewpointWater temp
2018-Feb-06 04:50N 10°51' W 016°38'2 5.2
2018-Feb-06 04:29N 10°53' W 016°38'5 4.9
2018-Feb-06 03:30N 10°57' W 016°41'5 4.8
2018-Feb-06 02:30N 11°00' W 016°44'4 2.4
2018-Feb-06 00:37N 11°02' W 016°49'110.7
2018-Feb-06 00:30N 11°02' W 016°47'  
2018-Feb-01 22:00N 10°52' W 016°45'2 4.5
2018-Feb-01 21:31N 10°50' W 016°43'40 1.0
2018-Jan-31 03:33N 11°27' W 017°01'0 4.9
2018-Jan-31 03:29N 11°26' W 017°01'1 1.2
2018-Jan-31 02:53N 11°27' W 017°02'3 1.1
2018-Jan-30 23:45N 11°24' W 017°00'1 3.9
2018-Jan-30 23:29N 11°23' W 017°01'39 6.1
2018-Jan-30 17:11N 10°52' W 016°39'7 0.7
2018-Jan-30 06:22N 10°47' W 016°44'4 6.8
2018-Jan-30 05:47N 10°47' W 016°40'4 9.2
2018-Jan-30 05:21N 10°47' W 016°36'5 0.4
2018-Jan-29 17:04N 10°50' W 016°40'0 4.2
2018-Jan-29 16:59N 10°50' W 016°39'3 3.0
2018-Jan-29 16:02N 10°49' W 016°37'0 6.3
2018-Jan-29 16:00N 10°49' W 016°37'10 2.5
2018-Jan-29 12:07N 10°57' W 016°42'1 4.5
2018-Jan-29 12:00N 10°57' W 016°42'5 4.1
2018-Jan-29 10:41N 10°56' W 016°48'1 4.0
2018-Jan-29 10:31N 10°56' W 016°48'2 4.1
2018-Jan-29 09:58N 10°55' W 016°51'5 4.9
2018-Jan-29 08:58N 10°55' W 016°46'3 5.7
2018-Jan-29 08:30N 10°55' W 016°48'4 8.9
2018-Jan-29 08:01N 10°57' W 016°52'10 3.4
2018-Jan-29 04:57N 10°58' W 016°42'2 4.3
2018-Jan-29 04:31N 10°59' W 016°43'3 4.8
2018-Jan-29 03:57N 10°59' W 016°46'2 0.7
2018-Jan-29 01:42N 10°58' W 016°46'1 5.1
2018-Jan-29 01:30N 10°58' W 016°45'14 1.9
2018-Jan-28 18:15N 11°01' W 016°59'1 1.3
2018-Jan-28 17:50N 11°01' W 016°59'9 2.6
2018-Jan-28 14:15N 10°55' W 016°52'4 0.2
2018-Jan-27 18:35N 10°51' W 016°53'2 4.5
2018-Jan-27 18:09N 10°53' W 016°51'1 4.7
2018-Jan-27 18:01N 10°53' W 016°51'3 4.3
2018-Jan-27 17:20N 10°56' W 016°51'6 1.0
2018-Jan-27 11:31N 11°00' W 016°47'1 9.0
2018-Jan-27 11:23N 11°02' W 016°47'4 4.8
2018-Jan-27 10:34N 11°00' W 016°43'0 5.2
2018-Jan-27 10:30N 11°00' W 016°43'3 5.3
2018-Jan-27 09:52N 10°57' W 016°41'1 1.8
2018-Jan-27 09:30N 10°57' W 016°40'2 3.9
2018-Jan-27 09:00N 10°58' W 016°42'2 4.2
2018-Jan-27 08:31N 10°59' W 016°43'3 4.1
2018-Jan-27 07:50N 11°01' W 016°46'1 4.1
2018-Jan-27 07:30N 11°02' W 016°47'2 4.1
2018-Jan-27 07:00N 11°03' W 016°48'  
Track history (hours):
 
Tides and Currents Weather Stations Pressure Air Temp Water Temp Dewpoint Dewpoint Depression Visibility Wind Speed Wind Dir Waves Ship Positions

Flipper 5

Last reported at 2018-Feb-06 04:50 UTC. Time now 2018-Feb-21 19:29 UTC.
Position N 10°51' W 016°38'.
Warning: this ship's position is 15 days out of date.

Length 62 m; draft 6.5 m.

Type: Fishing. MMSI: 630123005.

Date/timePositionNaut miles runAvg speedWind from/ knotsBaromVisibWave heightAir tempDewpointWater temp
2018-Feb-06 04:50N 10°51' W 016°38'2 5.2
2018-Feb-06 04:29N 10°53' W 016°38'5 4.9
2018-Feb-06 03:30N 10°57' W 016°41'5 4.8
2018-Feb-06 02:30N 11°00' W 016°44'4 2.4
2018-Feb-06 00:37N 11°02' W 016°49'110.7
2018-Feb-06 00:30N 11°02' W 016°47'  
2018-Feb-01 22:00N 10°52' W 016°45'2 4.5
2018-Feb-01 21:31N 10°50' W 016°43'40 1.0
2018-Jan-31 03:33N 11°27' W 017°01'0 4.9
2018-Jan-31 03:29N 11°26' W 017°01'1 1.2
2018-Jan-31 02:53N 11°27' W 017°02'3 1.1
2018-Jan-30 23:45N 11°24' W 017°00'1 3.9
2018-Jan-30 23:29N 11°23' W 017°01'39 6.1
2018-Jan-30 17:11N 10°52' W 016°39'7 0.7
2018-Jan-30 06:22N 10°47' W 016°44'4 6.8
2018-Jan-30 05:47N 10°47' W 016°40'4 9.2
2018-Jan-30 05:21N 10°47' W 016°36'5 0.4
2018-Jan-29 17:04N 10°50' W 016°40'0 4.2
2018-Jan-29 16:59N 10°50' W 016°39'3 3.0
2018-Jan-29 16:02N 10°49' W 016°37'0 6.3
2018-Jan-29 16:00N 10°49' W 016°37'10 2.5
2018-Jan-29 12:07N 10°57' W 016°42'1 4.5
2018-Jan-29 12:00N 10°57' W 016°42'5 4.1
2018-Jan-29 10:41N 10°56' W 016°48'1 4.0
2018-Jan-29 10:31N 10°56' W 016°48'2 4.1
2018-Jan-29 09:58N 10°55' W 016°51'5 4.9
2018-Jan-29 08:58N 10°55' W 016°46'3 5.7
2018-Jan-29 08:30N 10°55' W 016°48'4 8.9
2018-Jan-29 08:01N 10°57' W 016°52'10 3.4
2018-Jan-29 04:57N 10°58' W 016°42'2 4.3
2018-Jan-29 04:31N 10°59' W 016°43'3 4.8
2018-Jan-29 03:57N 10°59' W 016°46'2 0.7
2018-Jan-29 01:42N 10°58' W 016°46'1 5.1
2018-Jan-29 01:30N 10°58' W 016°45'14 1.9
2018-Jan-28 18:15N 11°01' W 016°59'1 1.3
2018-Jan-28 17:50N 11°01' W 016°59'9 2.6
2018-Jan-28 14:15N 10°55' W 016°52'4 0.2
2018-Jan-27 18:35N 10°51' W 016°53'2 4.5
2018-Jan-27 18:09N 10°53' W 016°51'1 4.7
2018-Jan-27 18:01N 10°53' W 016°51'3 4.3
2018-Jan-27 17:20N 10°56' W 016°51'6 1.0
2018-Jan-27 11:31N 11°00' W 016°47'1 9.0
2018-Jan-27 11:23N 11°02' W 016°47'4 4.8
2018-Jan-27 10:34N 11°00' W 016°43'0 5.2
2018-Jan-27 10:30N 11°00' W 016°43'3 5.3
2018-Jan-27 09:52N 10°57' W 016°41'1 1.8
2018-Jan-27 09:30N 10°57' W 016°40'2 3.9
2018-Jan-27 09:00N 10°58' W 016°42'2 4.2
2018-Jan-27 08:31N 10°59' W 016°43'3 4.1
2018-Jan-27 07:50N 11°01' W 016°46'1 4.1
2018-Jan-27 07:30N 11°02' W 016°47'2 4.1
2018-Jan-27 07:00N 11°03' W 016°48'  

Dump ship's entire track history